Terminal Aerodrome Forecast
Issued by NWS Dodge City, KS

Home | Current Version | Previous Version | Graphics & Text | Print | Product List | Glossary Off
Versions: 1 2 3 4 5 6 7 8 9 10 11 12 13 14 15 16 17 18 19 20 21 22 23 24 25

000
FTUS43 KDDC 250731 AAA
TAFDDC
TAF AMD
KDDC 250731Z 2508/2606 17010KT P6SM OVC090
      TEMPO 2508/2511 4SM TSRA OVC040CB
     FM251100 13007KT P6SM -SHRA OVC045
     FM251500 32008KT 5SM -SHRA OVC015
     FM251900 03009KT 4SM -SHRA OVC008=

USA.gov is the U.S. government's official web portal to all federal, state and local government web resources and services.